Time;durP1;ratioP1;P1;durP2;ratioP2;P2;SDS_P1;SDS_P2;PMS_P1;PMS_P2;Temp;Humidity;BMP_temperature;BMP_pressure;BME280_temperature;BME280_humidity;BME280_pressure;Samples;Min_cycle;Max_cycle;Signal;HPM_P1;HPM_P2
2023/05/08 00:00:56;;;;;;;9.10;8.10;;;;;;;8.11;87.87;101619.99;106800;1253;72107;-70
2023/05/08 00:03:22;;;;;;;9.30;8.40;;;;;;;8.10;88.07;101626.81;106875;1254;71642;-69
2023/05/08 00:05:49;;;;;;;9.80;8.70;;;;;;;8.08;88.07;101625.21;106677;1253;72599;-67
2023/05/08 00:08:16;;;;;;;10.00;8.70;;;;;;;8.05;88.14;101626.66;106738;1257;60430;-68
2023/05/08 00:10:42;;;;;;;9.70;8.60;;;;;;;8.03;88.05;101625.65;107241;1257;60416;-69
2023/05/08 00:13:09;;;;;;;10.30;8.70;;;;;;;8.00;88.32;101626.79;107723;1253;74221;-67
2023/05/08 00:15:36;;;;;;;10.50;8.60;;;;;;;7.97;88.43;101625.09;108340;1253;60380;-67
2023/05/08 00:18:02;;;;;;;10.00;8.80;;;;;;;7.95;88.61;101624.20;107244;1254;60434;-71
2023/05/08 00:20:29;;;;;;;10.70;9.40;;;;;;;7.94;88.79;101624.33;107168;1254;61366;-66
2023/05/08 00:22:56;;;;;;;10.30;9.20;;;;;;;7.92;88.71;101623.57;108093;1256;60414;-68
2023/05/08 00:25:23;;;;;;;10.30;9.10;;;;;;;7.91;88.62;101620.84;109289;1254;73828;-68
2023/05/08 00:27:49;;;;;;;10.60;9.10;;;;;;;7.90;88.72;101619.89;109309;1254;69572;-68
2023/05/08 00:30:16;;;;;;;10.50;9.40;;;;;;;7.88;88.71;101620.42;109219;1253;58276;-68
2023/05/08 00:32:43;;;;;;;10.10;9.10;;;;;;;7.87;89.08;101618.80;109133;1254;61112;-69
2023/05/08 00:35:09;;;;;;;10.20;9.20;;;;;;;7.86;88.42;101617.81;109177;1253;60387;-69
2023/05/08 00:37:39;;;;;;;10.40;9.30;;;;;;;7.85;88.94;101618.73;109275;1254;58498;-68
2023/05/08 00:40:08;;;;;;;9.70;8.70;;;;;;;7.85;89.19;101617.41;109318;1253;71147;-69
2023/05/08 00:42:34;;;;;;;10.30;9.30;;;;;;;7.84;89.11;101620.81;109099;1253;71516;-68
2023/05/08 00:45:02;;;;;;;10.90;9.00;;;;;;;7.83;89.03;101626.29;109026;1254;59633;-68
2023/05/08 00:47:30;;;;;;;9.00;8.10;;;;;;;7.83;89.15;101627.18;109142;1253;60031;-68
2023/05/08 00:49:58;;;;;;;9.00;8.10;;;;;;;7.85;88.77;101628.46;109170;1253;72851;-68
2023/05/08 00:52:28;;;;;;;9.50;8.30;;;;;;;7.86;88.28;101629.84;109270;1253;70862;-68
2023/05/08 00:54:55;;;;;;;10.10;8.50;;;;;;;7.85;88.47;101627.71;109107;1254;73013;-68
2023/05/08 00:57:23;;;;;;;10.50;8.60;;;;;;;7.85;88.41;101627.43;109271;1254;60176;-68
2023/05/08 00:59:51;;;;;;;9.40;8.50;;;;;;;7.82;88.24;101626.05;109152;1253;58145;-68
2023/05/08 01:02:18;;;;;;;10.10;8.40;;;;;;;7.80;88.32;101622.20;109155;1254;73822;-68
2023/05/08 01:04:45;;;;;;;10.80;9.20;;;;;;;7.77;88.30;101625.61;109143;1252;69954;-68
2023/05/08 01:07:11;;;;;;;10.00;9.00;;;;;;;7.75;88.35;101625.80;109154;1254;71322;-68
2023/05/08 01:09:38;;;;;;;10.20;8.50;;;;;;;7.73;88.06;101622.41;108899;1255;58277;-69
2023/05/08 01:12:20;;;;;;;10.00;9.00;;;;;;;7.71;88.10;101621.17;106672;1254;60546;-69
2023/05/08 01:15:03;;;;;;;10.40;8.70;;;;;;;7.69;88.02;101624.52;107665;1257;72450;-68
2023/05/08 01:17:37;;;;;;;9.50;8.50;;;;;;;7.67;88.02;101619.29;107835;1254;69669;-66
2023/05/08 01:20:22;;;;;;;10.60;8.30;;;;;;;7.65;87.95;101619.30;107233;1254;71456;-68
2023/05/08 01:23:14;;;;;;;9.60;8.60;;;;;;;7.61;87.89;101619.40;106813;1254;61128;-68
2023/05/08 01:26:11;;;;;;;9.10;8.20;;;;;;;7.58;87.85;101617.08;107932;1256;59189;-69
2023/05/08 01:29:09;;;;;;;9.20;8.30;;;;;;;7.54;88.09;101618.79;108140;1254;74051;-68
2023/05/08 01:31:46;;;;;;;10.00;8.90;;;;;;;7.50;87.88;101612.98;107258;1253;69651;-68
2023/05/08 01:34:34;;;;;;;9.80;8.80;;;;;;;7.47;87.87;101613.78;107452;1254;72992;-68
2023/05/08 01:37:05;;;;;;;9.70;8.70;;;;;;;7.43;88.34;101613.96;106719;1255;62338;-69
2023/05/08 01:40:08;;;;;;;9.40;8.50;;;;;;;7.41;88.25;101611.02;107288;1253;60342;-69
2023/05/08 01:42:47;;;;;;;9.90;8.40;;;;;;;7.38;88.26;101609.13;108960;1256;74769;-69
2023/05/08 01:45:33;;;;;;;9.70;8.70;;;;;;;7.35;88.57;101612.01;108501;1254;70585;-69
2023/05/08 01:48:07;;;;;;;10.10;8.30;;;;;;;7.33;88.16;101614.27;108531;1252;72677;-67
2023/05/08 01:50:41;;;;;;;9.20;8.20;;;;;;;7.31;88.50;101616.52;108111;1254;60989;-68
2023/05/08 01:53:18;;;;;;;9.00;8.10;;;;;;;7.32;88.08;101615.23;108152;1254;60475;-67
2023/05/08 01:55:49;;;;;;;11.70;8.80;;;;;;;7.31;88.42;101619.04;107388;1256;73113;-68
2023/05/08 01:58:16;;;;;;;9.00;8.10;;;;;;;7.29;88.23;101618.11;107319;1254;70297;-69
2023/05/08 02:00:44;;;;;;;9.60;8.60;;;;;;;7.28;88.05;101621.55;107915;1254;72659;-67
2023/05/08 02:03:14;;;;;;;9.30;8.30;;;;;;;7.27;88.17;101618.13;107375;1254;60018;-68
2023/05/08 02:05:42;;;;;;;9.30;8.30;;;;;;;7.24;88.32;101618.89;107266;1254;60516;-68
2023/05/08 02:08:11;;;;;;;8.90;7.90;;;;;;;7.22;88.37;101616.26;106942;1254;73216;-68
2023/05/08 02:10:40;;;;;;;9.60;8.60;;;;;;;7.20;88.22;101613.31;107572;1254;71099;-69
2023/05/08 02:13:09;;;;;;;9.90;8.40;;;;;;;7.17;88.11;101615.16;108008;1256;71049;-68
2023/05/08 02:15:37;;;;;;;9.50;8.30;;;;;;;7.13;88.09;101617.52;107084;1256;60970;-71
2023/05/08 02:18:07;;;;;;;9.10;8.20;;;;;;;7.11;88.31;101612.65;107445;1253;60566;-67
2023/05/08 02:20:35;;;;;;;9.60;8.50;;;;;;;7.08;88.79;101610.79;107456;1256;74112;-68
2023/05/08 02:23:02;;;;;;;9.70;8.50;;;;;;;7.05;88.68;101611.85;106885;1254;70022;-68
2023/05/08 02:25:30;;;;;;;10.40;8.50;;;;;;;7.02;88.74;101609.52;107280;1254;71240;-68
2023/05/08 02:27:57;;;;;;;9.70;8.70;;;;;;;7.00;89.00;101610.20;106581;1255;60939;-69
2023/05/08 02:30:25;;;;;;;9.50;8.50;;;;;;;6.97;89.10;101611.70;107825;1253;59203;-69
2023/05/08 02:32:54;;;;;;;9.90;8.10;;;;;;;6.94;89.16;101612.27;106885;1256;73550;-67
2023/05/08 02:35:24;;;;;;;9.70;8.60;;;;;;;6.91;89.11;101613.02;106578;1257;71435;-71
2023/05/08 02:37:54;;;;;;;9.40;8.50;;;;;;;6.89;89.08;101612.84;107979;1256;73079;-69
2023/05/08 02:40:23;;;;;;;9.60;8.50;;;;;;;6.87;89.50;101614.44;106685;1257;60711;-68
2023/05/08 02:42:50;;;;;;;10.60;8.70;;;;;;;6.84;89.68;101613.86;106694;1252;59736;-67
2023/05/08 02:45:17;;;;;;;10.20;9.00;;;;;;;6.80;89.42;101616.29;107435;1254;73572;-70
2023/05/08 02:47:56;;;;;;;10.10;8.90;;;;;;;6.77;89.77;101614.23;106798;1254;70834;-68
2023/05/08 02:50:29;;;;;;;10.80;9.20;;;;;;;6.75;89.72;101615.81;107346;1256;71706;-68
2023/05/08 02:53:03;;;;;;;10.90;9.50;;;;;;;6.73;89.67;101617.73;106825;1257;60437;-71
2023/05/08 02:55:48;;;;;;;12.50;10.50;;;;;;;6.70;90.02;101616.77;107486;1257;60731;-68
2023/05/08 02:58:36;;;;;;;11.10;9.90;;;;;;;6.67;90.30;101619.77;106917;1255;72547;-68
2023/05/08 03:01:28;;;;;;;11.40;10.20;;;;;;;6.65;90.35;101618.93;106928;1254;71086;-69
2023/05/08 03:04:03;;;;;;;12.00;10.70;;;;;;;6.62;90.73;101616.55;106415;1256;71693;-69
2023/05/08 03:06:37;;;;;;;11.00;9.70;;;;;;;6.59;90.36;101612.20;107608;1254;60587;-68
2023/05/08 03:09:05;;;;;;;12.60;10.20;;;;;;;6.58;90.45;101614.05;107709;1253;60425;-68
2023/05/08 03:11:39;;;;;;;11.90;10.50;;;;;;;6.56;90.46;101613.48;107245;1256;73698;-69
2023/05/08 03:14:10;;;;;;;13.00;10.50;;;;;;;6.53;91.02;101610.75;107263;1256;70067;-67
2023/05/08 03:16:40;;;;;;;12.60;11.30;;;;;;;6.51;90.93;101611.46;106742;1253;72413;-72
2023/05/08 03:19:14;;;;;;;11.90;10.50;;;;;;;6.48;91.22;101611.50;106784;1253;60367;-67
2023/05/08 03:21:43;;;;;;;12.40;10.90;;;;;;;6.45;91.47;101610.71;106879;1256;60388;-68
2023/05/08 03:24:11;;;;;;;12.10;10.80;;;;;;;6.43;91.06;101611.59;107710;1255;321237;-69
2023/05/08 03:26:37;;;;;;;13.40;10.80;;;;;;;6.42;91.50;101604.26;107294;1256;70957;-69
2023/05/08 03:29:05;;;;;;;12.80;11.20;;;;;;;6.41;91.36;101604.52;106745;1254;71242;-69
2023/05/08 03:31:33;;;;;;;12.00;10.80;;;;;;;6.41;91.66;101605.58;107083;1257;60345;-67
2023/05/08 03:34:01;;;;;;;11.20;10.00;;;;;;;6.42;91.43;101606.21;107345;1252;61972;-68
2023/05/08 03:36:27;;;;;;;11.80;10.30;;;;;;;6.42;91.70;101602.83;106757;1255;73000;-69
2023/05/08 03:38:54;;;;;;;11.70;10.50;;;;;;;6.42;91.69;101598.48;107361;1257;70057;-69
2023/05/08 03:41:21;;;;;;;11.60;10.30;;;;;;;6.42;91.57;101594.77;107205;1254;71411;-71
2023/05/08 03:43:49;;;;;;;12.90;10.30;;;;;;;6.42;91.65;101596.04;106655;1254;60991;-68
2023/05/08 03:46:19;;;;;;;12.00;10.20;;;;;;;6.41;91.53;101597.11;107488;1257;60949;-69
2023/05/08 03:48:48;;;;;;;12.40;10.50;;;;;;;6.42;91.64;101599.88;106729;1256;72670;-71
2023/05/08 03:51:15;;;;;;;12.60;10.60;;;;;;;6.43;91.86;101596.61;107230;1258;69195;-68
2023/05/08 03:53:42;;;;;;;12.20;10.70;;;;;;;6.45;91.47;101593.88;106822;1254;74627;-69
2023/05/08 03:56:08;;;;;;;11.50;10.10;;;;;;;6.46;91.42;101590.73;106675;1257;60318;-68
2023/05/08 03:58:52;;;;;;;11.50;10.10;;;;;;;6.47;91.60;101591.19;106613;1253;62009;-67
2023/05/08 04:01:31;;;;;;;12.60;10.70;;;;;;;6.49;91.61;101586.09;106915;1259;73013;-69
2023/05/08 04:04:07;;;;;;;11.10;10.00;;;;;;;6.52;91.82;101587.28;107529;1254;70074;-68
2023/05/08 04:06:44;;;;;;;12.10;9.90;;;;;;;6.55;91.76;101587.21;106768;1253;72114;-69
2023/05/08 04:09:27;;;;;;;11.20;10.00;;;;;;;6.58;91.53;101589.59;107089;1260;61131;-69
2023/05/08 04:11:57;;;;;;;11.10;9.90;;;;;;;6.64;91.57;101595.32;106560;1258;60440;-73
2023/05/08 04:14:30;;;;;;;10.40;9.30;;;;;;;6.68;91.28;101594.24;106664;1254;73551;-71
2023/05/08 04:17:02;;;;;;;11.90;9.70;;;;;;;6.71;91.47;101596.41;106342;1254;70997;-68
2023/05/08 04:19:35;;;;;;;10.30;8.90;;;;;;;6.75;91.36;101597.00;107115;1259;72406;-68
2023/05/08 04:22:06;;;;;;;10.50;9.30;;;;;;;6.79;91.24;101597.89;107964;1254;60895;-68
2023/05/08 04:24:39;;;;;;;10.90;9.30;;;;;;;6.85;91.01;101600.05;106196;1255;60351;-68
2023/05/08 04:27:07;;;;;;;10.20;9.20;;;;;;;6.91;90.70;101602.66;106834;1254;71514;-67
2023/05/08 04:29:34;;;;;;;11.10;8.90;;;;;;;6.97;90.71;101603.09;107032;1257;69667;-69
2023/05/08 04:32:04;;;;;;;9.80;8.80;;;;;;;7.04;90.43;101601.99;106395;1257;71728;-68
2023/05/08 04:34:31;;;;;;;10.20;9.00;;;;;;;7.10;90.39;101602.81;106530;1254;60984;-70
2023/05/08 04:36:58;;;;;;;10.50;9.00;;;;;;;7.16;89.92;101607.32;107665;1257;61000;-67
2023/05/08 04:39:25;;;;;;;10.20;8.90;;;;;;;7.21;89.81;101607.20;106420;1254;73592;-70
2023/05/08 04:41:54;;;;;;;9.20;8.20;;;;;;;7.26;89.65;101606.42;107729;1254;58267;-67
2023/05/08 04:44:20;;;;;;;9.50;8.50;;;;;;;7.34;89.56;101608.05;106534;1254;72383;-70
2023/05/08 04:46:48;;;;;;;9.50;8.50;;;;;;;7.41;89.18;101608.13;106885;1260;61064;-71
2023/05/08 04:49:15;;;;;;;10.60;8.70;;;;;;;7.48;88.94;101608.61;108401;1254;59100;-70
2023/05/08 04:51:42;;;;;;;9.60;8.20;;;;;;;7.52;88.47;101613.86;108021;1260;72895;-71
2023/05/08 04:54:08;;;;;;;10.10;8.40;;;;;;;7.56;88.56;101616.85;108017;1254;69806;-71
2023/05/08 04:56:35;;;;;;;9.50;8.50;;;;;;;7.62;88.37;101618.95;107658;1257;73875;-70
2023/05/08 04:59:02;;;;;;;10.40;8.70;;;;;;;7.67;87.84;101621.90;107951;1254;60545;-73
2023/05/08 05:01:29;;;;;;;10.00;8.50;;;;;;;7.72;87.62;101623.41;108644;1254;59750;-71
2023/05/08 05:03:55;;;;;;;9.80;8.30;;;;;;;7.76;87.45;101624.45;108835;1254;72260;-71
2023/05/08 05:06:22;;;;;;;9.90;8.30;;;;;;;7.81;87.20;101627.79;108909;1254;71498;-71
2023/05/08 05:08:49;;;;;;;8.80;7.80;;;;;;;7.87;87.22;101631.65;108128;1254;72320;-70
2023/05/08 05:11:16;;;;;;;11.30;8.10;;;;;;;7.92;86.77;101632.95;108276;1254;60969;-69
2023/05/08 05:13:42;;;;;;;9.90;8.30;;;;;;;8.00;86.82;101631.54;106730;1254;60509;-70
2023/05/08 05:16:09;;;;;;;9.20;8.30;;;;;;;8.06;86.51;101632.73;106898;1254;72915;-70
2023/05/08 05:18:36;;;;;;;8.60;7.60;;;;;;;8.13;86.21;101630.61;107682;1257;69121;-73
2023/05/08 05:21:03;;;;;;;10.00;7.80;;;;;;;8.18;85.60;101631.73;106807;1254;73778;-71
2023/05/08 05:23:30;;;;;;;8.90;7.90;;;;;;;8.23;85.15;101634.48;106692;1254;60495;-71
2023/05/08 05:25:56;;;;;;;9.70;7.90;;;;;;;8.28;85.07;101636.70;107979;1254;60021;-71
2023/05/08 05:28:23;;;;;;;8.90;7.90;;;;;;;8.32;84.73;101635.25;106618;1257;72344;-71
2023/05/08 05:30:50;;;;;;;9.40;7.90;;;;;;;8.39;84.57;101634.82;107293;1260;71188;-72
2023/05/08 05:33:17;;;;;;;8.10;7.20;;;;;;;8.43;83.89;101634.77;106650;1254;72799;-74
2023/05/08 05:35:44;;;;;;;8.40;7.30;;;;;;;8.48;84.07;101635.23;106789;1254;60917;-72
2023/05/08 05:38:11;;;;;;;8.30;7.40;;;;;;;8.52;84.00;101635.73;107346;1254;61461;-71
2023/05/08 05:40:37;;;;;;;9.50;7.70;;;;;;;8.55;83.71;101636.87;106918;1255;73596;-70
2023/05/08 05:43:04;;;;;;;8.40;7.30;;;;;;;8.61;83.30;101634.83;107861;1254;71701;-70
2023/05/08 05:45:31;;;;;;;7.90;7.00;;;;;;;8.66;83.17;101639.08;106833;1254;71410;-70
2023/05/08 05:47:59;;;;;;;8.60;7.30;;;;;;;8.70;82.56;101637.85;106891;1254;60930;-71
2023/05/08 05:50:26;;;;;;;7.70;6.90;;;;;;;8.74;82.77;101634.25;108866;1253;60058;-71
2023/05/08 05:52:53;;;;;;;8.00;6.90;;;;;;;8.80;82.57;101638.54;107819;1254;72377;-70
2023/05/08 05:55:20;;;;;;;8.90;7.30;;;;;;;8.87;81.99;101641.99;106615;1254;69735;-72
2023/05/08 05:57:47;;;;;;;8.30;7.40;;;;;;;8.93;81.92;101644.23;108289;1254;71253;-71
2023/05/08 06:00:15;;;;;;;12.90;8.40;;;;;;;8.98;81.30;101642.67;108576;1254;60472;-70
2023/05/08 06:02:42;;;;;;;9.20;8.10;;;;;;;9.05;81.47;101643.45;108368;1254;58281;-71
2023/05/08 06:05:09;;;;;;;8.50;7.10;;;;;;;9.17;81.61;101644.52;108405;1254;72562;-70
2023/05/08 06:07:37;;;;;;;8.10;6.90;;;;;;;9.26;81.30;101648.23;108429;1254;70072;-72
2023/05/08 06:10:03;;;;;;;8.00;6.80;;;;;;;9.33;80.71;101649.69;108552;1254;71876;-71
2023/05/08 06:12:30;;;;;;;8.30;7.20;;;;;;;9.42;80.09;101648.35;108353;1254;61204;-71
2023/05/08 06:14:57;;;;;;;8.20;6.60;;;;;;;9.45;79.13;101647.52;108585;1254;60374;-71
2023/05/08 06:17:24;;;;;;;8.20;7.30;;;;;;;9.45;78.99;101644.36;108575;1254;73711;-70
2023/05/08 06:19:54;;;;;;;7.50;6.10;;;;;;;9.48;78.88;101646.05;108368;1254;70649;-72
2023/05/08 06:22:28;;;;;;;7.60;6.70;;;;;;;9.50;78.83;101648.14;108459;1254;70473;-71
2023/05/08 06:24:57;;;;;;;7.80;6.90;;;;;;;9.53;78.33;101653.27;108307;1254;60663;-71
2023/05/08 06:27:24;;;;;;;10.10;7.50;;;;;;;9.61;78.51;101657.86;108528;1254;60518;-71
2023/05/08 06:29:51;;;;;;;9.40;7.40;;;;;;;9.70;78.83;101660.16;108549;1254;73621;-70
2023/05/08 06:32:19;;;;;;;9.40;7.50;;;;;;;9.85;78.77;101661.05;108469;1257;70361;-70
2023/05/08 06:34:47;;;;;;;7.80;7.00;;;;;;;9.98;78.14;101658.77;108359;1253;71472;-70
2023/05/08 06:37:14;;;;;;;9.10;7.10;;;;;;;10.09;77.69;101659.85;108340;1254;62035;-70
2023/05/08 06:39:40;;;;;;;8.20;7.30;;;;;;;10.20;77.36;101658.92;108246;1254;59167;-71
2023/05/08 06:42:07;;;;;;;8.30;7.40;;;;;;;10.34;77.26;101660.81;108425;1254;74515;-71
2023/05/08 06:44:34;;;;;;;8.30;6.90;;;;;;;10.48;77.21;101657.27;108546;1254;68948;-71
2023/05/08 06:47:01;;;;;;;6.80;6.00;;;;;;;10.59;76.13;101659.52;108239;1254;71541;-70
2023/05/08 06:49:28;;;;;;;7.60;6.60;;;;;;;10.61;75.41;101654.46;108358;1254;61810;-70
2023/05/08 06:51:55;;;;;;;8.10;6.60;;;;;;;10.69;75.32;101657.54;108533;1253;59002;-70
2023/05/08 06:54:23;;;;;;;7.90;6.80;;;;;;;10.77;75.05;101663.49;108556;1254;73879;-70
2023/05/08 06:56:52;;;;;;;8.40;6.80;;;;;;;10.87;74.99;101657.88;108518;1254;69984;-70
2023/05/08 06:59:22;;;;;;;7.60;6.80;;;;;;;10.97;74.63;101658.82;108361;1254;72417;-70
2023/05/08 07:01:49;;;;;;;9.10;7.20;;;;;;;11.05;74.10;101655.86;108542;1254;63364;-70
2023/05/08 07:04:16;;;;;;;8.10;7.00;;;;;;;11.15;73.85;101655.27;108381;1254;61217;-70
2023/05/08 07:06:43;;;;;;;11.40;6.90;;;;;;;11.18;73.22;101654.26;108213;1257;73976;-71
2023/05/08 07:09:10;;;;;;;7.80;6.90;;;;;;;11.26;73.66;101655.59;108543;1253;70071;-70
2023/05/08 07:11:37;;;;;;;8.20;7.00;;;;;;;11.34;73.04;101659.38;108550;1254;72203;-71
2023/05/08 07:14:04;;;;;;;8.30;6.70;;;;;;;11.41;73.07;101660.39;108487;1254;62337;-71
2023/05/08 07:16:31;;;;;;;7.20;6.40;;;;;;;11.56;73.39;101662.57;108340;1254;59418;-70
2023/05/08 07:18:57;;;;;;;8.40;6.80;;;;;;;11.64;72.24;101659.46;108548;1253;72408;-71
2023/05/08 07:21:25;;;;;;;8.30;7.40;;;;;;;11.72;71.82;101663.41;108543;1253;69898;-71
2023/05/08 07:23:52;;;;;;;8.80;7.50;;;;;;;11.83;72.11;101661.39;108506;1253;72456;-70
2023/05/08 07:26:20;;;;;;;9.20;7.40;;;;;;;11.96;71.97;101661.70;108558;1254;62560;-71
2023/05/08 07:28:47;;;;;;;8.40;6.80;;;;;;;12.09;71.92;101657.31;108386;1257;58828;-71
2023/05/08 07:31:14;;;;;;;8.80;6.90;;;;;;;12.19;70.76;101658.15;108575;1253;72356;-71
2023/05/08 07:33:41;;;;;;;7.70;6.90;;;;;;;12.29;70.83;101657.15;108474;1254;70927;-70
2023/05/08 07:36:07;;;;;;;8.30;6.80;;;;;;;12.36;70.57;101653.54;108578;1253;71093;-71
2023/05/08 07:38:35;;;;;;;7.30;6.50;;;;;;;12.49;70.73;101653.13;108478;1254;61664;-71
2023/05/08 07:41:04;;;;;;;7.60;6.90;;;;;;;12.60;69.76;101655.64;108377;1253;59291;-71
2023/05/08 07:43:31;;;;;;;7.20;6.40;;;;;;;12.68;69.80;101653.52;108349;1254;73658;-70
2023/05/08 07:45:58;;;;;;;8.50;6.90;;;;;;;12.74;68.81;101654.02;108167;1254;70020;-71
2023/05/08 07:48:25;;;;;;;7.50;6.30;;;;;;;12.80;68.73;101653.97;108280;1256;73099;-71
2023/05/08 07:50:51;;;;;;;8.50;6.70;;;;;;;12.85;68.36;101654.76;108283;1254;61631;-71
2023/05/08 07:53:18;;;;;;;6.90;6.20;;;;;;;12.94;68.44;101650.53;108550;1253;60742;-71
2023/05/08 07:55:44;;;;;;;7.40;6.70;;;;;;;13.06;68.30;101654.62;108350;1254;73645;-71
2023/05/08 07:58:11;;;;;;;8.20;6.70;;;;;;;13.12;67.41;101654.84;108522;1253;71537;-70
2023/05/08 08:00:38;;;;;;;7.00;6.30;;;;;;;13.15;66.75;101656.11;108477;1257;58356;-70
2023/05/08 08:03:05;;;;;;;6.30;5.30;;;;;;;13.18;66.57;101658.03;108532;1254;60724;-70
2023/05/08 08:05:32;;;;;;;7.10;5.80;;;;;;;13.19;66.53;101658.11;108367;1254;58876;-71
2023/05/08 08:07:59;;;;;;;6.90;6.10;;;;;;;13.21;66.74;101660.40;108357;1254;74537;-71
2023/05/08 08:10:26;;;;;;;7.20;6.40;;;;;;;13.22;66.57;101660.63;108106;1257;58208;-70
2023/05/08 08:12:52;;;;;;;8.40;6.20;;;;;;;13.30;66.84;101661.38;108091;1257;71648;-71
2023/05/08 08:15:19;;;;;;;7.10;6.40;;;;;;;13.40;66.38;101662.23;108064;1259;61535;-72
2023/05/08 08:17:46;;;;;;;7.50;5.70;;;;;;;13.54;66.17;101666.52;108154;1256;59557;-71
2023/05/08 08:20:13;;;;;;;8.30;6.40;;;;;;;13.60;65.61;101666.79;108181;1257;72885;-71
2023/05/08 08:22:40;;;;;;;7.20;5.50;;;;;;;13.72;66.03;101667.24;108204;1257;70922;-70
2023/05/08 08:25:07;;;;;;;6.70;5.70;;;;;;;13.82;65.43;101666.07;108155;1259;72393;-70
2023/05/08 08:27:33;;;;;;;6.60;5.90;;;;;;;13.87;65.68;101663.71;108140;1256;61858;-70
2023/05/08 08:30:00;;;;;;;7.50;6.30;;;;;;;13.95;64.89;101660.78;108121;1259;58193;-71
2023/05/08 08:32:42;;;;;;;7.70;6.40;;;;;;;14.07;64.73;101660.77;108198;1257;73169;-71
2023/05/08 08:35:09;;;;;;;7.10;6.20;;;;;;;14.22;64.64;101659.45;108178;1257;70944;-71
2023/05/08 08:37:36;;;;;;;7.10;6.10;;;;;;;14.25;63.99;101659.20;108135;1259;73285;-71
2023/05/08 08:40:03;;;;;;;6.80;6.10;;;;;;;14.36;64.45;101655.54;108162;1258;58251;-71
2023/05/08 08:42:30;;;;;;;7.10;6.40;;;;;;;14.49;63.96;101656.75;108054;1256;58776;-71
2023/05/08 08:44:57;;;;;;;6.80;6.10;;;;;;;14.61;63.77;101646.09;108192;1257;72717;-71
2023/05/08 08:47:33;;;;;;;7.20;6.50;;;;;;;14.76;63.35;101643.44;107979;1260;71766;-69
2023/05/08 08:50:02;;;;;;;7.20;6.50;;;;;;;14.86;62.27;101643.92;108252;1257;72801;-72
2023/05/08 08:52:54;;;;;;;6.70;5.90;;;;;;;14.94;61.80;101645.66;108210;1256;60778;-73
2023/05/08 08:55:22;;;;;;;6.50;5.90;;;;;;;15.06;62.20;101642.90;108232;1257;59941;-72
2023/05/08 08:58:17;;;;;;;7.40;6.10;;;;;;;15.16;61.46;101643.09;108187;1256;72602;-73
2023/05/08 09:00:44;;;;;;;7.00;6.20;;;;;;;15.27;61.76;101639.27;108288;1257;70439;-71
2023/05/08 09:03:11;;;;;;;6.10;5.50;;;;;;;15.37;61.07;101639.02;108154;1258;72277;-71
2023/05/08 09:05:38;;;;;;;7.90;6.10;;;;;;;15.34;60.19;101637.52;108120;1257;59127;-71
2023/05/08 09:08:06;;;;;;;8.00;6.90;;;;;;;15.39;60.58;101638.30;108265;1256;59962;-71
2023/05/08 09:10:34;;;;;;;7.10;6.00;;;;;;;15.53;60.91;101635.91;108161;1259;72689;-71
2023/05/08 09:13:04;;;;;;;7.60;6.00;;;;;;;15.67;60.96;101630.36;108124;1258;70046;-72
2023/05/08 09:15:32;;;;;;;6.40;5.80;;;;;;;15.79;59.76;101633.73;108299;1256;71598;-71
2023/05/08 09:18:01;;;;;;;7.00;6.10;;;;;;;15.91;59.48;101627.66;108240;1257;58929;-71
2023/05/08 09:20:28;;;;;;;6.40;5.20;;;;;;;16.05;59.45;101623.42;108102;1259;58875;-71
2023/05/08 09:22:56;;;;;;;6.50;4.60;;;;;;;16.05;57.69;101618.06;108212;1257;72331;-71
2023/05/08 09:25:23;;;;;;;5.60;4.80;;;;;;;16.04;57.28;101611.14;108158;1259;71228;-70
2023/05/08 09:27:50;;;;;;;5.70;5.00;;;;;;;16.06;57.29;101612.85;108264;1257;71478;-71
2023/05/08 09:30:16;;;;;;;5.20;4.40;;;;;;;16.06;56.56;101610.59;108291;1256;60105;-71
2023/05/08 09:32:44;;;;;;;6.00;5.20;;;;;;;16.09;56.48;101614.29;108271;1257;60047;-71
2023/05/08 09:35:11;;;;;;;6.60;5.50;;;;;;;16.14;56.27;101612.07;108257;1256;72660;-71
2023/05/08 09:37:42;;;;;;;5.30;4.20;;;;;;;16.30;57.38;101614.46;108250;1259;70160;-73
2023/05/08 09:40:19;;;;;;;5.40;4.90;;;;;;;16.47;57.03;101607.05;108259;1257;71424;-71
2023/05/08 09:42:48;;;;;;;6.30;5.10;;;;;;;16.74;57.49;101615.13;108148;1257;60433;-72
2023/05/08 09:45:31;;;;;;;5.10;4.10;;;;;;;16.90;55.17;101610.45;108093;1260;60839;-72
2023/05/08 09:47:58;;;;;;;4.50;4.00;;;;;;;16.86;53.92;101614.88;108193;1258;74489;-72
2023/05/08 09:50:25;;;;;;;4.80;4.10;;;;;;;16.95;52.92;101618.13;108046;1257;69954;-72
2023/05/08 09:52:52;;;;;;;4.80;4.00;;;;;;;17.12;52.91;101612.34;108083;1257;71256;-72
2023/05/08 09:55:19;;;;;;;4.90;3.50;;;;;;;17.17;50.29;101609.55;108134;1260;61351;-74
2023/05/08 09:57:58;;;;;;;5.10;4.00;;;;;;;17.23;50.59;101611.11;108045;1257;60332;-72
2023/05/08 10:00:28;;;;;;;5.00;3.30;;;;;;;17.39;51.15;101614.34;108172;1260;74937;-72
2023/05/08 10:03:00;;;;;;;3.60;3.00;;;;;;;17.32;48.93;101615.21;108194;1260;71667;-73
2023/05/08 10:05:35;;;;;;;4.30;3.50;;;;;;;17.31;49.70;101613.46;108093;1259;71096;-72
2023/05/08 10:08:21;;;;;;;4.70;3.70;;;;;;;17.44;50.48;101614.95;108006;1256;59212;-72
2023/05/08 10:10:48;;;;;;;4.10;3.70;;;;;;;17.64;51.41;101613.33;108003;1258;61629;-71
2023/05/08 10:13:15;;;;;;;4.10;3.60;;;;;;;17.81;51.55;101614.44;108163;1258;73185;-71
2023/05/08 10:15:43;;;;;;;4.30;3.50;;;;;;;17.96;50.53;101615.54;108094;1259;72138;-72
2023/05/08 10:18:13;;;;;;;5.70;4.20;;;;;;;18.01;48.81;101610.64;108149;1261;71650;-72
2023/05/08 10:20:43;;;;;;;4.30;3.80;;;;;;;18.03;49.06;101608.58;108188;1257;59015;-72
2023/05/08 10:23:14;;;;;;;4.80;3.30;;;;;;;18.11;48.51;101613.27;108027;1257;59181;-73
2023/05/08 10:25:50;;;;;;;4.80;3.50;;;;;;;18.07;46.42;101608.39;108196;1259;71785;-72
2023/05/08 10:28:36;;;;;;;4.60;3.40;;;;;;;18.08;47.02;101610.63;108081;1259;69804;-73
2023/05/08 10:31:06;;;;;;;3.70;3.30;;;;;;;18.16;47.23;101608.83;108199;1257;72509;-73
2023/05/08 10:33:34;;;;;;;3.70;2.80;;;;;;;18.20;45.59;101615.50;108136;1258;60964;-71
2023/05/08 10:36:02;;;;;;;3.90;3.50;;;;;;;18.18;46.13;101617.54;108134;1259;59128;-72
2023/05/08 10:38:30;;;;;;;4.00;3.30;;;;;;;18.24;46.44;101617.77;107902;1258;75764;-72
2023/05/08 10:41:00;;;;;;;4.70;3.90;;;;;;;18.26;46.81;101608.60;108179;1258;70256;-72
2023/05/08 10:43:29;;;;;;;6.40;4.30;;;;;;;18.41;47.63;101609.33;108183;1257;72120;-72
2023/05/08 10:45:57;;;;;;;4.20;3.70;;;;;;;18.57;47.37;101607.37;108040;1256;59351;-72
2023/05/08 10:48:30;;;;;;;5.00;3.90;;;;;;;18.65;46.61;101608.06;108286;1257;59414;-72
2023/05/08 10:51:07;;;;;;;4.50;4.00;;;;;;;18.68;45.26;101610.71;108237;1256;72430;-72
2023/05/08 10:53:38;;;;;;;5.50;4.40;;;;;;;18.73;45.05;101603.36;108239;1257;69275;-72
2023/05/08 10:56:05;;;;;;;6.80;5.00;;;;;;;18.72;45.69;101599.80;108120;1259;72670;-71
2023/05/08 10:58:33;;;;;;;4.70;4.20;;;;;;;18.80;47.01;101601.64;108289;1256;61921;-71
2023/05/08 11:00:59;;;;;;;5.30;4.70;;;;;;;18.81;46.41;101597.18;108169;1257;59049;-71
2023/05/08 11:03:27;;;;;;;4.90;4.00;;;;;;;18.81;45.83;101602.39;108123;1257;73046;-71
2023/05/08 11:06:00;;;;;;;7.20;4.20;;;;;;;18.90;46.80;101600.41;108300;1256;69022;-71
2023/05/08 11:08:28;;;;;;;3.40;3.00;;;;;;;19.01;45.90;101599.13;108282;1257;72517;-73
2023/05/08 11:10:57;;;;;;;5.60;4.00;;;;;;;19.13;46.10;101597.64;108221;1257;60059;-72
2023/05/08 11:13:28;;;;;;;5.00;4.50;;;;;;;19.15;45.58;101594.87;108235;1260;59373;-71
2023/05/08 11:15:55;;;;;;;4.70;4.20;;;;;;;19.16;45.63;101593.09;108151;1257;74599;-72
2023/05/08 11:18:24;;;;;;;5.00;4.40;;;;;;;19.14;46.27;101590.81;107957;1257;69841;-73
2023/05/08 11:20:59;;;;;;;4.90;4.10;;;;;;;19.16;45.71;101587.50;108163;1256;72511;-72
2023/05/08 11:23:26;;;;;;;8.00;5.30;;;;;;;19.16;46.31;101583.82;108242;1256;59875;-73
2023/05/08 11:26:12;;;;;;;6.00;4.90;;;;;;;19.19;47.14;101583.98;108316;1257;58866;-73
2023/05/08 11:28:54;;;;;;;7.00;5.60;;;;;;;19.24;47.32;101584.02;108157;1258;74462;-73
2023/05/08 11:31:21;;;;;;;5.50;5.00;;;;;;;19.29;46.73;101580.44;108158;1257;70867;-73